sensor_id;sensor_type;location;lat;lon;timestamp;pressure;altitude;pressure_sealevel;temperature;humidity
51928;BME280;37953;52.806;18.270;2023-04-07T00:00:02;100890.56;;;5.09;100.00
51928;BME280;37953;52.806;18.270;2023-04-07T00:02:50;100877.69;;;5.09;100.00
51928;BME280;37953;52.806;18.270;2023-04-07T00:05:16;100883.72;;;5.10;100.00
51928;BME280;37953;52.806;18.270;2023-04-07T00:07:44;100872.53;;;5.09;100.00
51928;BME280;37953;52.806;18.270;2023-04-07T00:10:10;100879.47;;;5.10;100.00
51928;BME280;37953;52.806;18.270;2023-04-07T00:12:36;100873.41;;;5.10;100.00
51928;BME280;37953;52.806;18.270;2023-04-07T00:15:02;100883.72;;;5.10;100.00
51928;BME280;37953;52.806;18.270;2023-04-07T00:17:28;100878.56;;;5.10;100.00
51928;BME280;37953;52.806;18.270;2023-04-07T00:19:53;100872.53;;;5.09;100.00
51928;BME280;37953;52.806;18.270;2023-04-07T00:22:19;100869.16;;;5.10;100.00
51928;BME280;37953;52.806;18.270;2023-04-07T00:24:45;100866.59;;;5.10;100.00
51928;BME280;37953;52.806;18.270;2023-04-07T00:27:11;100866.59;;;5.10;100.00
51928;BME280;37953;52.806;18.270;2023-04-07T00:29:37;100857.97;;;5.10;100.00
51928;BME280;37953;52.806;18.270;2023-04-07T00:32:02;100860.53;;;5.10;100.00
51928;BME280;37953;52.806;18.270;2023-04-07T00:34:28;100864.88;;;5.11;100.00
51928;BME280;37953;52.806;18.270;2023-04-07T00:36:54;100857.97;;;5.10;100.00
51928;BME280;37953;52.806;18.270;2023-04-07T00:39:20;100857.97;;;5.10;100.00
51928;BME280;37953;52.806;18.270;2023-04-07T00:41:46;100852.81;;;5.10;100.00
51928;BME280;37953;52.806;18.270;2023-04-07T00:44:12;100843.34;;;5.09;100.00
51928;BME280;37953;52.806;18.270;2023-04-07T00:46:38;100841.66;;;5.09;100.00
51928;BME280;37953;52.806;18.270;2023-04-07T00:49:05;100839.91;;;5.08;100.00
51928;BME280;37953;52.806;18.270;2023-04-07T00:51:32;100844.19;;;5.08;100.00
51928;BME280;37953;52.806;18.270;2023-04-07T00:53:58;100848.44;;;5.07;100.00
51928;BME280;37953;52.806;18.270;2023-04-07T00:56:24;100840.69;;;5.06;100.00
51928;BME280;37953;52.806;18.270;2023-04-07T00:58:50;100839.03;;;5.08;100.00
51928;BME280;37953;52.806;18.270;2023-04-07T01:01:20;100836.47;;;5.08;100.00
51928;BME280;37953;52.806;18.270;2023-04-07T01:06:17;100834.75;;;5.08;100.00
51928;BME280;37953;52.806;18.270;2023-04-07T01:08:52;100832.22;;;5.10;100.00
51928;BME280;37953;52.806;18.270;2023-04-07T01:11:39;100830.53;;;5.10;100.00
51928;BME280;37953;52.806;18.270;2023-04-07T01:14:12;100832.25;;;5.12;100.00
51928;BME280;37953;52.806;18.270;2023-04-07T01:16:52;100827.13;;;5.12;100.00
51928;BME280;37953;52.806;18.270;2023-04-07T01:21:55;100825.41;;;5.12;100.00
51928;BME280;37953;52.806;18.270;2023-04-07T01:24:38;100831.47;;;5.14;100.00
51928;BME280;37953;52.806;18.270;2023-04-07T01:27:54;100825.47;;;5.14;100.00
51928;BME280;37953;52.806;18.270;2023-04-07T01:29:53;100825.53;;;5.15;100.00
51928;BME280;37953;52.806;18.270;2023-04-07T01:32:19;100816.03;;;5.14;100.00
51928;BME280;37953;52.806;18.270;2023-04-07T01:34:46;100816.94;;;5.15;100.00
51928;BME280;37953;52.806;18.270;2023-04-07T01:37:19;100812.63;;;5.15;100.00
51928;BME280;37953;52.806;18.270;2023-04-07T01:39:46;100810.06;;;5.15;100.00
51928;BME280;37953;52.806;18.270;2023-04-07T01:42:12;100805.78;;;5.16;100.00
51928;BME280;37953;52.806;18.270;2023-04-07T01:44:38;100798.13;;;5.17;100.00
51928;BME280;37953;52.806;18.270;2023-04-07T01:47:04;100794.66;;;5.17;100.00
51928;BME280;37953;52.806;18.270;2023-04-07T01:49:30;100793.81;;;5.18;100.00
51928;BME280;37953;52.806;18.270;2023-04-07T01:51:56;100797.25;;;5.18;100.00
51928;BME280;37953;52.806;18.270;2023-04-07T01:54:22;100792.97;;;5.17;100.00
51928;BME280;37953;52.806;18.270;2023-04-07T01:56:48;100789.53;;;5.17;100.00
51928;BME280;37953;52.806;18.270;2023-04-07T01:59:14;100785.22;;;5.17;100.00
51928;BME280;37953;52.806;18.270;2023-04-07T02:01:40;100787.88;;;5.19;100.00
51928;BME280;37953;52.806;18.270;2023-04-07T02:06:36;100791.31;;;5.19;100.00
51928;BME280;37953;52.806;18.270;2023-04-07T02:09:06;100778.47;;;5.21;100.00
51928;BME280;37953;52.806;18.270;2023-04-07T02:11:33;100786.22;;;5.21;100.00
51928;BME280;37953;52.806;18.270;2023-04-07T02:14:00;100779.34;;;5.21;100.00
51928;BME280;37953;52.806;18.270;2023-04-07T02:16:28;100774.19;;;5.21;100.00
51928;BME280;37953;52.806;18.270;2023-04-07T02:18:54;100777.63;;;5.22;100.00
51928;BME280;37953;52.806;18.270;2023-04-07T02:21:21;100781.06;;;5.22;100.00
51928;BME280;37953;52.806;18.270;2023-04-07T02:23:47;100775.94;;;5.22;100.00
51928;BME280;37953;52.806;18.270;2023-04-07T02:26:13;100773.41;;;5.24;100.00
51928;BME280;37953;52.806;18.270;2023-04-07T02:28:39;100778.56;;;5.24;100.00
51928;BME280;37953;52.806;18.270;2023-04-07T02:31:05;100775.16;;;5.25;100.00
51928;BME280;37953;52.806;18.270;2023-04-07T02:33:30;100772.59;;;5.25;100.00
51928;BME280;37953;52.806;18.270;2023-04-07T02:35:56;100763.97;;;5.24;100.00
51928;BME280;37953;52.806;18.270;2023-04-07T02:38:22;100763.16;;;5.25;100.00
51928;BME280;37953;52.806;18.270;2023-04-07T02:40:48;100758.81;;;5.24;100.00
51928;BME280;37953;52.806;18.270;2023-04-07T02:43:14;100764.03;;;5.26;100.00
51928;BME280;37953;52.806;18.270;2023-04-07T02:45:40;100762.31;;;5.26;100.00
51928;BME280;37953;52.806;18.270;2023-04-07T02:48:05;100755.44;;;5.27;100.00
51928;BME280;37953;52.806;18.270;2023-04-07T02:50:31;100763.19;;;5.27;100.00
51928;BME280;37953;52.806;18.270;2023-04-07T02:52:57;100758.91;;;5.27;100.00
51928;BME280;37953;52.806;18.270;2023-04-07T02:55:23;100762.38;;;5.28;100.00
51928;BME280;37953;52.806;18.270;2023-04-07T02:57:48;100753.78;;;5.27;100.00
51928;BME280;37953;52.806;18.270;2023-04-07T03:00:15;100753.78;;;5.27;100.00
51928;BME280;37953;52.806;18.270;2023-04-07T03:02:40;100758.13;;;5.30;100.00
51928;BME280;37953;52.806;18.270;2023-04-07T03:05:06;100753.78;;;5.29;100.00
51928;BME280;37953;52.806;18.270;2023-04-07T03:07:32;100749.47;;;5.28;100.00
51928;BME280;37953;52.806;18.270;2023-04-07T03:09:58;100746.06;;;5.29;100.00
51928;BME280;37953;52.806;18.270;2023-04-07T03:12:24;100753.78;;;5.29;100.00
51928;BME280;37953;52.806;18.270;2023-04-07T03:14:50;100747.78;;;5.28;100.00
51928;BME280;37953;52.806;18.270;2023-04-07T03:17:16;100747.78;;;5.28;100.00
51928;BME280;37953;52.806;18.270;2023-04-07T03:19:42;100749.53;;;5.29;100.00
51928;BME280;37953;52.806;18.270;2023-04-07T03:22:07;100746.97;;;5.29;100.00
51928;BME280;37953;52.806;18.270;2023-04-07T03:24:33;100749.53;;;5.29;100.00
51928;BME280;37953;52.806;18.270;2023-04-07T03:26:59;100750.41;;;5.30;100.00
51928;BME280;37953;52.806;18.270;2023-04-07T03:29:26;100746.13;;;5.30;100.00
51928;BME280;37953;52.806;18.270;2023-04-07T03:31:52;100746.13;;;5.30;100.00
51928;BME280;37953;52.806;18.270;2023-04-07T03:34:18;100751.28;;;5.30;100.00
51928;BME280;37953;52.806;18.270;2023-04-07T03:36:43;100746.13;;;5.30;100.00
51928;BME280;37953;52.806;18.270;2023-04-07T03:39:09;100746.97;;;5.31;100.00
51928;BME280;37953;52.806;18.270;2023-04-07T03:41:35;100747.88;;;5.32;100.00
51928;BME280;37953;52.806;18.270;2023-04-07T03:44:01;100749.59;;;5.33;100.00
51928;BME280;37953;52.806;18.270;2023-04-07T03:46:26;100749.59;;;5.33;100.00
51928;BME280;37953;52.806;18.270;2023-04-07T03:48:52;100750.47;;;5.33;100.00
51928;BME280;37953;52.806;18.270;2023-04-07T03:51:18;100747.94;;;5.35;100.00
51928;BME280;37953;52.806;18.270;2023-04-07T03:53:44;100743.66;;;5.34;100.00
51928;BME280;37953;52.806;18.270;2023-04-07T03:56:10;100745.38;;;5.35;100.00
51928;BME280;37953;52.806;18.270;2023-04-07T03:58:35;100742.81;;;5.35;100.00
51928;BME280;37953;52.806;18.270;2023-04-07T04:01:01;100740.22;;;5.35;100.00
51928;BME280;37953;52.806;18.270;2023-04-07T04:03:27;100742.81;;;5.35;100.00
51928;BME280;37953;52.806;18.270;2023-04-07T04:05:53;100739.34;;;5.34;100.00
51928;BME280;37953;52.806;18.270;2023-04-07T04:08:19;100737.59;;;5.33;100.00
51928;BME280;37953;52.806;18.270;2023-04-07T04:10:45;100734.22;;;5.34;100.00
51928;BME280;37953;52.806;18.270;2023-04-07T04:13:11;100737.66;;;5.35;100.00
51928;BME280;37953;52.806;18.270;2023-04-07T04:15:37;100741.13;;;5.37;100.00
51928;BME280;37953;52.806;18.270;2023-04-07T04:18:03;100738.56;;;5.37;100.00
51928;BME280;37953;52.806;18.270;2023-04-07T04:20:29;100744.59;;;5.37;100.00
51928;BME280;37953;52.806;18.270;2023-04-07T04:22:54;100735.19;;;5.38;100.00
51928;BME280;37953;52.806;18.270;2023-04-07T04:25:20;100736.03;;;5.38;100.00
51928;BME280;37953;52.806;18.270;2023-04-07T04:27:46;100738.63;;;5.38;100.00
51928;BME280;37953;52.806;18.270;2023-04-07T04:30:12;100732.59;;;5.38;100.00
51928;BME280;37953;52.806;18.270;2023-04-07T04:32:38;100736.03;;;5.38;100.00
51928;BME280;37953;52.806;18.270;2023-04-07T04:35:04;100731.75;;;5.39;100.00
51928;BME280;37953;52.806;18.270;2023-04-07T04:37:30;100740.41;;;5.41;100.00
51928;BME280;37953;52.806;18.270;2023-04-07T04:39:56;100742.13;;;5.42;100.00
51928;BME280;37953;52.806;18.270;2023-04-07T04:42:22;100743.03;;;5.42;100.00
51928;BME280;37953;52.806;18.270;2023-04-07T04:44:48;100743.88;;;5.43;100.00
51928;BME280;37953;52.806;18.270;2023-04-07T04:47:14;100744.75;;;5.43;100.00
51928;BME280;37953;52.806;18.270;2023-04-07T04:49:39;100741.38;;;5.44;100.00
51928;BME280;37953;52.806;18.270;2023-04-07T04:52:05;100739.59;;;5.43;100.00
51928;BME280;37953;52.806;18.270;2023-04-07T04:54:31;100748.25;;;5.45;100.00
51928;BME280;37953;52.806;18.270;2023-04-07T04:56:57;100739.72;;;5.48;100.00
51928;BME280;37953;52.806;18.270;2023-04-07T04:59:23;100743.19;;;5.48;100.00
51928;BME280;37953;52.806;18.270;2023-04-07T05:01:51;100740.69;;;5.51;100.00
51928;BME280;37953;52.806;18.270;2023-04-07T05:04:17;100738.22;;;5.55;100.00
51928;BME280;37953;52.806;18.270;2023-04-07T05:06:43;100737.38;;;5.56;100.00
51928;BME280;37953;52.806;18.270;2023-04-07T05:09:08;100747.72;;;5.57;100.00
51928;BME280;37953;52.806;18.270;2023-04-07T05:11:34;100741.72;;;5.58;100.00
51928;BME280;37953;52.806;18.270;2023-04-07T05:14:00;100738.34;;;5.59;100.00
51928;BME280;37953;52.806;18.270;2023-04-07T05:16:26;100738.34;;;5.61;100.00
51928;BME280;37953;52.806;18.270;2023-04-07T05:18:51;100747.81;;;5.60;100.00
51928;BME280;37953;52.806;18.270;2023-04-07T05:21:17;100744.41;;;5.61;100.00
51928;BME280;37953;52.806;18.270;2023-04-07T05:23:46;100744.41;;;5.61;100.00
51928;BME280;37953;52.806;18.270;2023-04-07T05:26:12;100749.59;;;5.63;100.00
51928;BME280;37953;52.806;18.270;2023-04-07T05:28:37;100741.03;;;5.64;100.00
51928;BME280;37953;52.806;18.270;2023-04-07T05:31:03;100742.75;;;5.65;100.00
51928;BME280;37953;52.806;18.270;2023-04-07T05:33:29;100737.66;;;5.66;100.00
51928;BME280;37953;52.806;18.270;2023-04-07T05:35:55;100732.50;;;5.66;100.00
51928;BME280;37953;52.806;18.270;2023-04-07T05:38:21;100739.44;;;5.67;100.00
51928;BME280;37953;52.806;18.270;2023-04-07T05:40:48;100738.56;;;5.68;100.00
51928;BME280;37953;52.806;18.270;2023-04-07T05:43:13;100737.75;;;5.69;100.00
51928;BME280;37953;52.806;18.270;2023-04-07T05:45:40;100738.69;;;5.71;100.00
51928;BME280;37953;52.806;18.270;2023-04-07T05:48:05;100736.97;;;5.72;100.00
51928;BME280;37953;52.806;18.270;2023-04-07T05:50:31;100735.25;;;5.72;100.00
51928;BME280;37953;52.806;18.270;2023-04-07T05:52:57;100743.03;;;5.74;100.00
51928;BME280;37953;52.806;18.270;2023-04-07T05:55:22;100743.06;;;5.76;100.00
51928;BME280;37953;52.806;18.270;2023-04-07T05:57:48;100736.22;;;5.76;100.00
51928;BME280;37953;52.806;18.270;2023-04-07T06:00:14;100741.38;;;5.76;100.00
51928;BME280;37953;52.806;18.270;2023-04-07T06:02:40;100739.72;;;5.78;100.00
51928;BME280;37953;52.806;18.270;2023-04-07T06:05:06;100740.56;;;5.79;100.00
51928;BME280;37953;52.806;18.270;2023-04-07T06:07:32;100739.78;;;5.81;100.00
51928;BME280;37953;52.806;18.270;2023-04-07T06:09:58;100742.34;;;5.81;100.00
51928;BME280;37953;52.806;18.270;2023-04-07T06:12:23;100740.63;;;5.80;100.00
51928;BME280;37953;52.806;18.270;2023-04-07T06:14:53;100744.06;;;5.81;100.00
51928;BME280;37953;52.806;18.270;2023-04-07T06:17:24;100747.50;;;5.81;100.00
51928;BME280;37953;52.806;18.270;2023-04-07T06:19:56;100750.94;;;5.82;100.00
51928;BME280;37953;52.806;18.270;2023-04-07T06:22:22;100746.72;;;5.84;100.00
51928;BME280;37953;52.806;18.270;2023-04-07T06:24:48;100752.75;;;5.84;100.00
51928;BME280;37953;52.806;18.270;2023-04-07T06:27:13;100754.50;;;5.85;100.00
51928;BME280;37953;52.806;18.270;2023-04-07T06:29:39;100764.00;;;5.88;100.00
51928;BME280;37953;52.806;18.270;2023-04-07T06:32:05;100760.63;;;5.89;100.00
51928;BME280;37953;52.806;18.270;2023-04-07T06:34:34;100758.94;;;5.91;100.00
51928;BME280;37953;52.806;18.270;2023-04-07T06:37:00;100760.69;;;5.92;100.00
51928;BME280;37953;52.806;18.270;2023-04-07T06:39:27;100752.13;;;5.93;100.00
51928;BME280;37953;52.806;18.270;2023-04-07T06:41:52;100749.56;;;5.93;100.00
51928;BME280;37953;52.806;18.270;2023-04-07T06:44:18;100752.13;;;5.93;100.00
51928;BME280;37953;52.806;18.270;2023-04-07T06:46:44;100748.66;;;5.92;100.00
51928;BME280;37953;52.806;18.270;2023-04-07T06:49:13;100750.50;;;5.95;100.00
51928;BME280;37953;52.806;18.270;2023-04-07T06:51:38;100753.06;;;5.95;100.00
51928;BME280;37953;52.806;18.270;2023-04-07T06:54:04;100745.34;;;5.95;100.00
51928;BME280;37953;52.806;18.270;2023-04-07T06:56:32;100750.50;;;5.97;100.00
51928;BME280;37953;52.806;18.270;2023-04-07T06:58:58;100748.84;;;5.97;100.00
51928;BME280;37953;52.806;18.270;2023-04-07T07:01:23;100748.84;;;5.97;100.00
51928;BME280;37953;52.806;18.270;2023-04-07T07:03:49;100747.13;;;5.98;100.00
51928;BME280;37953;52.806;18.270;2023-04-07T07:06:15;100750.56;;;5.98;100.00
51928;BME280;37953;52.806;18.270;2023-04-07T07:08:41;100754.00;;;5.99;100.00
51928;BME280;37953;52.806;18.270;2023-04-07T07:11:07;100752.31;;;5.99;100.00
51928;BME280;37953;52.806;18.270;2023-04-07T07:13:32;100751.47;;;6.00;100.00
51928;BME280;37953;52.806;18.270;2023-04-07T07:15:58;100754.06;;;6.00;100.00
51928;BME280;37953;52.806;18.270;2023-04-07T07:18:24;100754.97;;;6.02;100.00
51928;BME280;37953;52.806;18.270;2023-04-07T07:20:50;100760.19;;;6.04;100.00
51928;BME280;37953;52.806;18.270;2023-04-07T07:23:16;100762.81;;;6.05;100.00
51928;BME280;37953;52.806;18.270;2023-04-07T07:25:41;100753.34;;;6.06;100.00
51928;BME280;37953;52.806;18.270;2023-04-07T07:28:07;100761.09;;;6.07;100.00
51928;BME280;37953;52.806;18.270;2023-04-07T07:30:39;100751.69;;;6.08;100.00
51928;BME280;37953;52.806;18.270;2023-04-07T07:33:08;100757.72;;;6.08;100.00
51928;BME280;37953;52.806;18.270;2023-04-07T07:35:34;100760.34;;;6.10;100.00
51928;BME280;37953;52.806;18.270;2023-04-07T07:38:02;100763.81;;;6.12;100.00
51928;BME280;37953;52.806;18.270;2023-04-07T07:40:28;100756.94;;;6.13;100.00
51928;BME280;37953;52.806;18.270;2023-04-07T07:42:56;100760.44;;;6.15;100.00
51928;BME280;37953;52.806;18.270;2023-04-07T07:45:22;100763.09;;;6.18;100.00
51928;BME280;37953;52.806;18.270;2023-04-07T07:47:48;100770.88;;;6.19;100.00
51928;BME280;37953;52.806;18.270;2023-04-07T07:50:14;100769.22;;;6.21;100.00
51928;BME280;37953;52.806;18.270;2023-04-07T07:52:40;100761.50;;;6.23;100.00
51928;BME280;37953;52.806;18.270;2023-04-07T07:55:06;100772.75;;;6.25;100.00
51928;BME280;37953;52.806;18.270;2023-04-07T07:57:32;100775.34;;;6.26;100.00
51928;BME280;37953;52.806;18.270;2023-04-07T07:59:58;100775.38;;;6.28;100.00
51928;BME280;37953;52.806;18.270;2023-04-07T08:02:24;100771.94;;;6.27;100.00
51928;BME280;37953;52.806;18.270;2023-04-07T08:04:55;100773.72;;;6.30;100.00
51928;BME280;37953;52.806;18.270;2023-04-07T08:07:21;100774.69;;;6.34;100.00
51928;BME280;37953;52.806;18.270;2023-04-07T08:09:47;100777.31;;;6.35;100.00
51928;BME280;37953;52.806;18.270;2023-04-07T08:12:14;100774.75;;;6.37;100.00
51928;BME280;37953;52.806;18.270;2023-04-07T08:14:40;100779.13;;;6.39;100.00
51928;BME280;37953;52.806;18.270;2023-04-07T08:17:06;100775.69;;;6.40;100.00
51928;BME280;37953;52.806;18.270;2023-04-07T08:19:31;100771.44;;;6.42;100.00
51928;BME280;37953;52.806;18.270;2023-04-07T08:21:57;100775.75;;;6.43;100.00
51928;BME280;37953;52.806;18.270;2023-04-07T08:24:23;100782.72;;;6.46;100.00
51928;BME280;37953;52.806;18.270;2023-04-07T08:26:49;100781.06;;;6.48;100.00
51928;BME280;37953;52.806;18.270;2023-04-07T08:29:15;100781.97;;;6.50;100.00
51928;BME280;37953;52.806;18.270;2023-04-07T08:31:41;100780.31;;;6.53;100.00
51928;BME280;37953;52.806;18.270;2023-04-07T08:34:07;100775.25;;;6.57;100.00
51928;BME280;37953;52.806;18.270;2023-04-07T08:36:33;100777.03;;;6.59;100.00
51928;BME280;37953;52.806;18.270;2023-04-07T08:38:58;100777.13;;;6.64;100.00
51928;BME280;37953;52.806;18.270;2023-04-07T08:41:28;100773.72;;;6.66;100.00
51928;BME280;37953;52.806;18.270;2023-04-07T08:43:55;100771.25;;;6.69;100.00
51928;BME280;37953;52.806;18.270;2023-04-07T08:46:22;100776.44;;;6.71;100.00
51928;BME280;37953;52.806;18.270;2023-04-07T08:48:52;100771.28;;;6.72;100.00
51928;BME280;37953;52.806;18.270;2023-04-07T08:51:27;100778.22;;;6.75;100.00
51928;BME280;37953;52.806;18.270;2023-04-07T08:54:03;100781.72;;;6.77;100.00
51928;BME280;37953;52.806;18.270;2023-04-07T08:56:31;100773.16;;;6.78;100.00
51928;BME280;37953;52.806;18.270;2023-04-07T08:58:57;100765.47;;;6.80;100.00
51928;BME280;37953;52.806;18.270;2023-04-07T09:01:23;100767.19;;;6.81;100.00
51928;BME280;37953;52.806;18.270;2023-04-07T09:03:49;100763.78;;;6.83;100.00
51928;BME280;37953;52.806;18.270;2023-04-07T09:06:15;100761.25;;;6.85;100.00
51928;BME280;37953;52.806;18.270;2023-04-07T09:08:41;100766.47;;;6.86;100.00
51928;BME280;37953;52.806;18.270;2023-04-07T09:11:07;100764.78;;;6.88;100.00
51928;BME280;37953;52.806;18.270;2023-04-07T09:13:33;100769.09;;;6.89;100.00
51928;BME280;37953;52.806;18.270;2023-04-07T09:16:00;100767.47;;;6.93;100.00
51928;BME280;37953;52.806;18.270;2023-04-07T09:18:26;100760.69;;;6.97;100.00
51928;BME280;37953;52.806;18.270;2023-04-07T09:20:59;100764.19;;;7.00;100.00
51928;BME280;37953;52.806;18.270;2023-04-07T09:23:26;100753.97;;;7.05;100.00
51928;BME280;37953;52.806;18.270;2023-04-07T09:25:58;100752.31;;;7.08;100.00
51928;BME280;37953;52.806;18.270;2023-04-07T09:28:36;100757.56;;;7.11;100.00
51928;BME280;37953;52.806;18.270;2023-04-07T09:31:05;100752.44;;;7.14;100.00
51928;BME280;37953;52.806;18.270;2023-04-07T09:33:32;100749.03;;;7.17;100.00
51928;BME280;37953;52.806;18.270;2023-04-07T09:35:58;100744.78;;;7.19;100.00
51928;BME280;37953;52.806;18.270;2023-04-07T09:38:31;100737.97;;;7.23;100.00
51928;BME280;37953;52.806;18.270;2023-04-07T09:43:43;100747.56;;;7.28;100.00
51928;BME280;37953;52.806;18.270;2023-04-07T09:46:10;100743.34;;;7.33;100.00
51928;BME280;37953;52.806;18.270;2023-04-07T09:48:36;100738.25;;;7.37;100.00
51928;BME280;37953;52.806;18.270;2023-04-07T09:51:12;100740.03;;;7.39;100.00
51928;BME280;37953;52.806;18.270;2023-04-07T09:53:56;100740.94;;;7.41;100.00
51928;BME280;37953;52.806;18.270;2023-04-07T09:56:22;100735.81;;;7.44;100.00
51928;BME280;37953;52.806;18.270;2023-04-07T09:58:48;100735.84;;;7.46;100.00
51928;BME280;37953;52.806;18.270;2023-04-07T10:01:19;100730.72;;;7.47;100.00
51928;BME280;37953;52.806;18.270;2023-04-07T10:03:45;100732.47;;;7.50;100.00
51928;BME280;37953;52.806;18.270;2023-04-07T10:06:12;100729.06;;;7.52;100.00
51928;BME280;37953;52.806;18.270;2023-04-07T10:08:39;100736.03;;;7.55;100.00
51928;BME280;37953;52.806;18.270;2023-04-07T10:11:05;100720.53;;;7.57;100.00
51928;BME280;37953;52.806;18.270;2023-04-07T10:13:32;100727.47;;;7.59;100.00
51928;BME280;37953;52.806;18.270;2023-04-07T10:16:04;100719.81;;;7.62;100.00
51928;BME280;37953;52.806;18.270;2023-04-07T10:18:31;100721.56;;;7.65;100.00
51928;BME280;37953;52.806;18.270;2023-04-07T10:21:00;100724.19;;;7.68;100.00
51928;BME280;37953;52.806;18.270;2023-04-07T10:26:10;100725.25;;;7.78;100.00
51928;BME280;37953;52.806;18.270;2023-04-07T10:28:37;100722.69;;;7.81;100.00
51928;BME280;37953;52.806;18.270;2023-04-07T10:31:03;100720.19;;;7.84;100.00
51928;BME280;37953;52.806;18.270;2023-04-07T10:36:14;100709.94;;;7.90;100.00
51928;BME280;37953;52.806;18.270;2023-04-07T10:38:40;100707.41;;;7.93;100.00
51928;BME280;37953;52.806;18.270;2023-04-07T10:43:51;100708.38;;;7.98;100.00
51928;BME280;37953;52.806;18.270;2023-04-07T10:46:17;100704.94;;;7.99;100.00
51928;BME280;37953;52.806;18.270;2023-04-07T10:48:43;100711.84;;;8.00;100.00
51928;BME280;37953;52.806;18.270;2023-04-07T10:51:29;100710.97;;;8.00;100.00
51928;BME280;37953;52.806;18.270;2023-04-07T10:59:23;100711.00;;;8.01;100.00
51928;BME280;37953;52.806;18.270;2023-04-07T11:02:16;100704.94;;;7.99;100.00
51928;BME280;37953;52.806;18.270;2023-04-07T11:04:41;100719.59;;;7.99;100.00
51928;BME280;37953;52.806;18.270;2023-04-07T11:07:08;100718.69;;;7.97;100.00
51928;BME280;37953;52.806;18.270;2023-04-07T11:09:33;100723.00;;;7.96;100.00
51928;BME280;37953;52.806;18.270;2023-04-07T11:11:59;100725.59;;;7.96;100.00
51928;BME280;37953;52.806;18.270;2023-04-07T11:14:25;100726.44;;;7.97;100.00
51928;BME280;37953;52.806;18.270;2023-04-07T11:16:51;100721.28;;;7.97;100.00
51928;BME280;37953;52.806;18.270;2023-04-07T11:19:18;100724.72;;;7.97;100.00
51928;BME280;37953;52.806;18.270;2023-04-07T11:21:43;100723.91;;;7.98;100.00
51928;BME280;37953;52.806;18.270;2023-04-07T11:24:09;100725.63;;;7.99;100.00
51928;BME280;37953;52.806;18.270;2023-04-07T11:26:36;100724.75;;;7.99;100.00
51928;BME280;37953;52.806;18.270;2023-04-07T11:29:03;100720.47;;;8.01;100.00
51928;BME280;37953;52.806;18.270;2023-04-07T11:31:30;100723.09;;;8.02;100.00
51928;BME280;37953;52.806;18.270;2023-04-07T11:33:56;100720.53;;;8.02;100.00
51928;BME280;37953;52.806;18.270;2023-04-07T11:39:20;100728.31;;;8.05;100.00
51928;BME280;37953;52.806;18.270;2023-04-07T11:41:50;100719.69;;;8.06;100.00
51928;BME280;37953;52.806;18.270;2023-04-07T11:44:16;100724.03;;;8.07;100.00
51928;BME280;37953;52.806;18.270;2023-04-07T11:46:55;100724.06;;;8.10;100.00
51928;BME280;37953;52.806;18.270;2023-04-07T11:49:30;100723.28;;;8.14;100.00
51928;BME280;37953;52.806;18.270;2023-04-07T11:52:00;100722.50;;;8.17;100.00
51928;BME280;37953;52.806;18.270;2023-04-07T11:54:37;100715.63;;;8.19;100.00
51928;BME280;37953;52.806;18.270;2023-04-07T11:57:04;100722.56;;;8.23;100.00
51928;BME280;37953;52.806;18.270;2023-04-07T11:59:29;100716.59;;;8.26;100.00
51928;BME280;37953;52.806;18.270;2023-04-07T12:01:55;100721.84;;;8.30;100.00
51928;BME280;37953;52.806;18.270;2023-04-07T12:04:21;100726.22;;;8.34;100.00
51928;BME280;37953;52.806;18.270;2023-04-07T12:06:47;100733.19;;;8.39;100.00
51928;BME280;37953;52.806;18.270;2023-04-07T12:09:26;100729.84;;;8.43;100.00
51928;BME280;37953;52.806;18.270;2023-04-07T12:11:53;100733.31;;;8.46;100.00
51928;BME280;37953;52.806;18.270;2023-04-07T12:14:19;100726.47;;;8.50;100.00
51928;BME280;37953;52.806;18.270;2023-04-07T12:16:45;100729.13;;;8.53;100.00
51928;BME280;37953;52.806;18.270;2023-04-07T12:19:11;100727.41;;;8.55;100.00
51928;BME280;37953;52.806;18.270;2023-04-07T12:21:37;100728.34;;;8.59;100.00
51928;BME280;37953;52.806;18.270;2023-04-07T12:24:03;100727.50;;;8.60;100.00
51928;BME280;37953;52.806;18.270;2023-04-07T12:26:29;100726.66;;;8.62;100.00
51928;BME280;37953;52.806;18.270;2023-04-07T12:28:55;100718.94;;;8.64;100.00
51928;BME280;37953;52.806;18.270;2023-04-07T12:31:35;100720.69;;;8.66;100.00
51928;BME280;37953;52.806;18.270;2023-04-07T12:34:01;100724.19;;;8.68;100.00
51928;BME280;37953;52.806;18.270;2023-04-07T12:36:27;100724.16;;;8.70;100.00
51928;BME280;37953;52.806;18.270;2023-04-07T12:38:54;100723.34;;;8.71;100.00
51928;BME280;37953;52.806;18.270;2023-04-07T12:41:21;100725.97;;;8.72;100.00
51928;BME280;37953;52.806;18.270;2023-04-07T12:43:47;100731.16;;;8.74;100.00
51928;BME280;37953;52.806;18.270;2023-04-07T12:46:14;100728.59;;;8.75;100.00
51928;BME280;37953;52.806;18.270;2023-04-07T12:48:41;100728.63;;;8.77;100.00
51928;BME280;37953;52.806;18.270;2023-04-07T12:51:08;100726.06;;;8.79;100.00
51928;BME280;37953;52.806;18.270;2023-04-07T12:53:34;100714.00;;;8.81;100.00
51928;BME280;37953;52.806;18.270;2023-04-07T12:56:00;100729.56;;;8.84;100.00
51928;BME280;37953;52.806;18.270;2023-04-07T12:58:26;100723.56;;;8.85;100.00
51928;BME280;37953;52.806;18.270;2023-04-07T13:00:53;100722.72;;;8.87;100.00
51928;BME280;37953;52.806;18.270;2023-04-07T13:03:19;100729.66;;;8.90;100.00
51928;BME280;37953;52.806;18.270;2023-04-07T13:05:45;100727.97;;;8.92;100.00